Time;durP1;ratioP1;P1;durP2;ratioP2;P2;SDS_P1;SDS_P2;PMS_P1;PMS_P2;Temp;Humidity;BMP_temperature;BMP_pressure;BME280_temperature;BME280_humidity;BME280_pressure;Samples;Min_cycle;Max_cycle;Signal;HPM_P1;HPM_P2
2021/01/17 00:04:07;;;;;;;9.70;3.85;;;0.30;87.90;;;;;;9997173;28;20525;-61
2021/01/17 00:08:58;;;;;;;11.57;4.43;;;0.30;87.80;;;;;;9997866;28;20034;-61
2021/01/17 00:13:48;;;;;;;9.02;3.90;;;0.20;88.00;;;;;;9996782;28;20515;-61
2021/01/17 00:18:39;;;;;;;9.82;4.32;;;0.30;88.50;;;;;;9991398;28;20750;-60
2021/01/17 00:23:29;;;;;;;8.00;4.32;;;0.30;88.00;;;;;;9993392;28;20553;-62
2021/01/17 00:28:20;;;;;;;11.85;4.10;;;0.40;88.20;;;;;;9996860;28;20555;-62
2021/01/17 00:33:12;;;;;;;8.13;3.38;;;0.30;88.10;;;;;;9994600;28;20033;-61
2021/01/17 00:38:03;;;;;;;7.32;3.17;;;0.30;88.40;;;;;;9995305;28;20427;-62
2021/01/17 00:42:55;;;;;;;10.20;4.55;;;0.30;88.40;;;;;;9994264;28;20037;-61
2021/01/17 00:47:47;;;;;;;9.95;4.25;;;0.40;88.50;;;;;;9996022;28;20037;-62
2021/01/17 00:52:38;;;;;;;10.77;3.80;;;0.40;88.40;;;;;;9995889;28;20125;-62
2021/01/17 00:57:28;;;;;;;12.82;4.32;;;0.50;88.30;;;;;;9996701;28;20041;-61
2021/01/17 01:02:19;;;;;;;11.13;4.10;;;0.40;88.50;;;;;;9995214;28;20045;-61
2021/01/17 01:07:10;;;;;;;10.93;4.72;;;0.40;88.70;;;;;;9993638;28;20044;-62
2021/01/17 01:12:01;;;;;;;8.38;3.75;;;0.50;88.60;;;;;;9995335;28;20087;-61
2021/01/17 01:16:54;;;;;;;8.77;3.90;;;0.50;88.80;;;;;;9993419;28;20140;-62
2021/01/17 01:21:45;;;;;;;9.70;3.00;;;0.50;88.60;;;;;;9994422;28;20045;-61
2021/01/17 01:26:38;;;;;;;9.55;3.97;;;0.40;89.00;;;;;;9993287;28;20026;-61
2021/01/17 01:31:28;;;;;;;8.93;3.88;;;0.40;89.50;;;;;;9992858;28;20117;-61
2021/01/17 01:36:21;;;;;;;9.38;3.97;;;0.50;89.00;;;;;;9993003;28;20037;-60
2021/01/17 01:41:11;;;;;;;7.80;3.72;;;0.50;89.10;;;;;;9990501;28;20041;-63
2021/01/17 01:46:02;;;;;;;11.52;3.53;;;0.50;88.90;;;;;;9992230;28;20407;-60
2021/01/17 01:50:53;;;;;;;8.50;4.38;;;0.60;89.00;;;;;;9993051;28;20041;-61
2021/01/17 01:55:44;;;;;;;7.93;3.50;;;0.70;88.90;;;;;;9992179;28;20029;-62
2021/01/17 02:00:35;;;;;;;7.55;3.72;;;0.70;88.90;;;;;;9991527;28;20241;-61
2021/01/17 02:05:25;;;;;;;7.93;3.42;;;0.70;89.00;;;;;;9991242;28;20232;-61
2021/01/17 02:10:17;;;;;;;8.65;3.58;;;0.60;89.10;;;;;;9991895;28;20025;-62
2021/01/17 02:15:31;;;;;;;6.63;3.60;;;0.70;89.30;;;;;;9989986;28;20121;-62
2021/01/17 02:20:24;;;;;;;6.63;2.92;;;0.80;89.20;;;;;;9989587;28;20061;-62
2021/01/17 02:25:15;;;;;;;7.03;3.55;;;0.60;89.60;;;;;;9991493;28;20200;-62
2021/01/17 02:30:09;;;;;;;9.68;3.25;;;0.60;89.60;;;;;;9991654;28;20041;-61
2021/01/17 02:35:01;;;;;;;8.57;3.15;;;0.70;89.50;;;;;;9988717;28;20500;-62
2021/01/17 02:40:16;;;;;;;7.10;3.00;;;0.70;89.60;;;;;;9990376;28;20049;-63
2021/01/17 02:45:07;;;;;;;7.65;3.88;;;0.60;90.00;;;;;;9989158;28;20037;-60
2021/01/17 02:49:59;;;;;;;6.80;3.17;;;0.70;90.00;;;;;;9991237;28;20751;-60
2021/01/17 02:54:50;;;;;;;6.82;2.78;;;0.70;89.70;;;;;;9991077;28;20025;-63
2021/01/17 02:59:59;;;;;;;9.95;3.85;;;0.60;90.20;;;;;;9990596;28;20056;-60
2021/01/17 03:05:01;;;;;;;8.55;3.33;;;0.60;90.00;;;;;;9991363;28;20103;-62
2021/01/17 03:09:52;;;;;;;6.97;3.15;;;0.70;90.00;;;;;;9992549;28;20025;-61
2021/01/17 03:14:45;;;;;;;8.50;4.18;;;0.60;90.10;;;;;;9991218;28;20064;-61
2021/01/17 03:19:36;;;;;;;7.40;3.38;;;0.60;90.20;;;;;;9990093;28;20957;-63
2021/01/17 03:24:27;;;;;;;6.60;3.30;;;0.60;90.50;;;;;;9991259;28;20514;-60
2021/01/17 03:29:17;;;;;;;9.82;4.43;;;0.60;90.20;;;;;;9992859;28;20163;-61
2021/01/17 03:34:08;;;;;;;7.60;3.40;;;0.60;90.20;;;;;;9996459;28;20036;-62
2021/01/17 03:38:58;;;;;;;7.72;3.35;;;0.60;90.20;;;;;;9997834;28;20033;-63
2021/01/17 03:43:49;;;;;;;10.18;3.95;;;0.60;90.20;;;;;;9996178;28;20033;-61
2021/01/17 03:48:40;;;;;;;10.73;3.40;;;0.60;90.20;;;;;;9996918;28;20029;-61
2021/01/17 03:53:30;;;;;;;9.27;4.05;;;0.60;90.30;;;;;;9998618;28;22130;-62
2021/01/17 03:58:21;;;;;;;8.45;3.88;;;0.60;90.30;;;;;;9997617;28;20125;-63
2021/01/17 04:03:13;;;;;;;7.50;4.35;;;0.70;90.20;;;;;;9994676;28;20087;-60
2021/01/17 04:08:04;;;;;;;12.45;4.15;;;0.80;90.20;;;;;;9994820;28;20715;-60
2021/01/17 04:12:54;;;;;;;8.43;3.33;;;0.70;90.10;;;;;;9996991;28;20427;-60
2021/01/17 04:17:47;;;;;;;9.32;4.20;;;0.70;90.20;;;;;;9996844;28;20053;-61
2021/01/17 04:22:38;;;;;;;11.25;4.22;;;0.70;90.30;;;;;;9995965;28;20573;-62
2021/01/17 04:27:29;;;;;;;7.40;3.35;;;0.80;90.20;;;;;;9997280;28;20029;-62
2021/01/17 04:32:20;;;;;;;7.30;3.40;;;0.80;90.30;;;;;;9996264;28;20038;-60
2021/01/17 04:37:10;;;;;;;8.18;2.95;;;0.70;90.30;;;;;;9996053;28;20380;-60
2021/01/17 04:42:02;;;;;;;9.98;3.78;;;0.80;90.40;;;;;;9994065;28;20042;-60
2021/01/17 04:46:53;;;;;;;8.80;3.92;;;0.80;90.30;;;;;;9995784;28;20033;-61
2021/01/17 04:51:50;;;;;;;8.38;4.10;;;0.70;90.40;;;;;;9996168;28;20029;-62
2021/01/17 04:56:58;;;;;;;9.80;4.00;;;0.80;90.40;;;;;;9994655;28;20156;-61
2021/01/17 05:01:53;;;;;;;7.80;2.83;;;0.90;90.30;;;;;;9994271;28;20041;-61
2021/01/17 05:06:47;;;;;;;8.77;3.90;;;0.80;90.40;;;;;;9995477;28;20503;-61
2021/01/17 05:11:39;;;;;;;7.20;3.88;;;0.80;90.40;;;;;;9993864;28;20251;-60
2021/01/17 05:16:35;;;;;;;7.80;3.17;;;0.90;90.40;;;;;;9994429;28;20242;-60
2021/01/17 05:21:27;;;;;;;8.35;3.53;;;0.90;90.40;;;;;;9995067;28;20052;-60
2021/01/17 05:26:17;;;;;;;8.55;4.00;;;0.90;90.40;;;;;;9991809;28;20033;-61
2021/01/17 05:31:08;;;;;;;9.27;3.50;;;0.90;90.40;;;;;;9989613;28;20467;-63
2021/01/17 05:36:00;;;;;;;6.35;3.15;;;0.90;90.40;;;;;;9994099;28;20037;-60
2021/01/17 05:40:51;;;;;;;8.40;3.92;;;0.90;90.50;;;;;;9992147;28;21076;-60
2021/01/17 05:45:42;;;;;;;5.03;3.15;;;1.00;90.40;;;;;;9992418;28;20045;-61
2021/01/17 05:50:34;;;;;;;11.88;4.32;;;0.90;90.50;;;;;;9993938;28;20033;-63
2021/01/17 05:55:33;;;;;;;11.25;4.38;;;1.00;90.50;;;;;;9993168;28;20096;-60
2021/01/17 06:00:33;;;;;;;8.20;4.03;;;1.00;90.40;;;;;;9991618;28;20038;-60
2021/01/17 06:05:24;;;;;;;8.93;4.25;;;1.00;90.40;;;;;;9990755;28;20037;-61
2021/01/17 06:10:22;;;;;;;8.98;4.55;;;1.00;90.20;;;;;;9991243;28;20907;-60
2021/01/17 06:15:14;;;;;;;8.77;4.13;;;1.10;90.50;;;;;;9991539;28;20037;-60
2021/01/17 06:20:09;;;;;;;11.88;4.55;;;1.10;90.30;;;;;;9992118;28;20053;-60
2021/01/17 06:25:02;;;;;;;7.43;3.45;;;1.20;90.40;;;;;;9991842;28;20029;-60
2021/01/17 06:29:54;;;;;;;8.35;3.90;;;1.20;90.30;;;;;;9990675;28;20502;-60
2021/01/17 06:34:53;;;;;;;9.15;4.30;;;1.20;90.30;;;;;;9989710;28;20116;-60
2021/01/17 06:39:48;;;;;;;6.55;3.63;;;1.20;90.40;;;;;;9991057;28;20427;-60
2021/01/17 06:44:39;;;;;;;8.27;3.45;;;1.30;90.50;;;;;;9990391;28;20503;-60
2021/01/17 06:49:35;;;;;;;7.72;3.42;;;1.30;90.40;;;;;;9990313;28;20278;-60
2021/01/17 06:54:36;;;;;;;;;;;1.30;90.50;;;;;;9990501;28;20041;-61
2021/01/17 06:59:40;;;;;;;4.97;2.83;;;1.30;90.40;;;;;;9991757;28;20071;-59
2021/01/17 07:05:06;;;;;;;9.25;3.78;;;1.20;90.50;;;;;;9992504;28;20261;-61
2021/01/17 07:10:06;;;;;;;6.40;3.53;;;1.30;90.40;;;;;;9982147;28;20127;-60
2021/01/17 07:15:08;;;;;;;7.95;3.78;;;1.30;90.40;;;;;;9996739;28;20052;-61
2021/01/17 07:20:08;;;;;;;10.98;3.80;;;1.30;90.40;;;;;;9996448;28;20053;-59
2021/01/17 07:25:01;;;;;;;6.00;3.47;;;1.30;90.50;;;;;;9997226;28;20021;-60
2021/01/17 07:29:57;;;;;;;10.02;4.03;;;1.40;90.50;;;;;;9994929;28;20042;-59
2021/01/17 07:34:52;;;;;;;;;;;1.50;90.40;;;;;;9997683;28;20688;-59
2021/01/17 07:39:49;;;;;;;7.70;3.50;;;1.50;90.40;;;;;;9997580;28;19921;-60
2021/01/17 07:44:52;;;;;;;9.95;3.33;;;1.60;90.40;;;;;;9996781;28;20369;-60
2021/01/17 07:49:46;;;;;;;7.75;3.65;;;1.60;90.40;;;;;;9994777;28;20029;-60
2021/01/17 07:54:38;;;;;;;9.43;3.33;;;1.60;90.50;;;;;;9996805;28;20038;-60
2021/01/17 07:59:28;;;;;;;7.07;3.17;;;1.70;90.50;;;;;;9997210;28;20673;-61
2021/01/17 08:04:19;;;;;;;9.73;3.67;;;1.70;90.50;;;;;;9996397;28;20034;-60
2021/01/17 08:09:11;;;;;;;8.82;3.33;;;1.70;90.60;;;;;;9996410;28;20017;-60
2021/01/17 08:14:15;;;;;;;7.13;3.60;;;1.80;90.60;;;;;;9996047;28;20183;-60
2021/01/17 08:19:05;;;;;;;9.77;3.88;;;1.90;90.50;;;;;;9994524;28;20050;-59
2021/01/17 08:24:18;;;;;;;10.80;3.58;;;1.80;90.60;;;;;;9995786;28;20045;-59
2021/01/17 08:29:09;;;;;;;5.20;2.90;;;1.70;90.60;;;;;;9994662;28;20479;-60
2021/01/17 08:34:11;;;;;;;9.02;4.25;;;1.80;90.60;;;;;;9993284;28;20083;-60
2021/01/17 08:39:02;;;;;;;7.22;3.38;;;1.90;90.60;;;;;;9993578;28;20025;-59
2021/01/17 08:43:55;;;;;;;7.13;3.55;;;2.00;90.50;;;;;;9992080;28;20072;-60
2021/01/17 08:48:50;;;;;;;8.98;4.45;;;2.00;90.50;;;;;;9994142;28;20033;-60
2021/01/17 08:53:40;;;;;;;12.35;4.00;;;2.10;90.60;;;;;;9993779;28;20037;-62
2021/01/17 08:58:31;;;;;;;7.72;3.88;;;2.10;90.50;;;;;;9994672;28;20037;-60
2021/01/17 09:03:48;;;;;;;8.77;3.65;;;2.20;90.50;;;;;;9994769;28;20424;-60
2021/01/17 09:08:57;;;;;;;7.47;3.42;;;2.30;90.50;;;;;;9993243;28;20079;-60
2021/01/17 09:13:48;;;;;;;6.13;3.72;;;2.30;90.60;;;;;;9991931;28;20092;-60
2021/01/17 09:18:39;;;;;;;7.60;3.70;;;2.40;90.70;;;;;;9993983;28;20315;-60
2021/01/17 09:23:34;;;;;;;9.57;4.25;;;2.50;90.60;;;;;;9992255;28;20037;-60
2021/01/17 09:28:28;;;;;;;8.50;4.07;;;2.80;90.60;;;;;;9992346;28;20411;-61
2021/01/17 09:33:20;;;;;;;9.00;4.18;;;2.90;90.50;;;;;;9992983;28;20894;-61
2021/01/17 09:38:18;;;;;;;9.50;4.20;;;2.90;90.50;;;;;;9992730;28;20381;-60
2021/01/17 09:43:10;;;;;;;12.95;5.70;;;2.90;90.50;;;;;;9989037;28;20041;-60
2021/01/17 09:48:01;;;;;;;12.27;6.45;;;2.90;90.80;;;;;;9993261;28;20060;-60
2021/01/17 09:52:51;;;;;;;7.53;4.13;;;3.30;90.40;;;;;;9991852;28;20057;-61
2021/01/17 09:57:42;;;;;;;7.50;3.58;;;3.20;90.40;;;;;;9992689;28;20044;-61
2021/01/17 10:02:34;;;;;;;7.28;4.03;;;3.10;90.40;;;;;;9991329;28;20045;-61
2021/01/17 10:07:24;;;;;;;6.88;3.72;;;3.10;90.50;;;;;;9989624;28;20515;-61
2021/01/17 10:12:25;;;;;;;8.85;4.05;;;3.00;90.60;;;;;;9991908;28;20039;-59
2021/01/17 10:17:16;;;;;;;5.15;3.45;;;2.90;90.60;;;;;;9990723;28;20163;-60
2021/01/17 10:22:13;;;;;;;8.10;3.88;;;2.90;90.70;;;;;;9992627;28;20114;-62
2021/01/17 10:27:06;;;;;;;8.93;4.18;;;3.00;90.60;;;;;;9990034;28;20120;-60
2021/01/17 10:31:59;;;;;;;7.97;3.58;;;3.10;90.50;;;;;;9990809;28;20312;-61
2021/01/17 10:36:55;;;;;;;8.50;3.95;;;3.10;90.50;;;;;;9990856;28;20037;-60
2021/01/17 10:41:46;;;;;;;9.68;4.60;;;3.10;90.70;;;;;;9987273;28;20474;-61
2021/01/17 10:46:42;;;;;;;6.05;3.60;;;3.10;90.70;;;;;;9989823;28;20123;-61
2021/01/17 10:51:43;;;;;;;7.90;3.70;;;3.20;90.60;;;;;;9989729;28;20772;-62
2021/01/17 10:56:35;;;;;;;6.65;3.50;;;3.30;90.60;;;;;;9990799;28;20333;-61
2021/01/17 11:01:33;;;;;;;8.23;3.70;;;3.40;90.60;;;;;;9987302;28;20042;-61
2021/01/17 11:06:27;;;;;;;6.70;3.60;;;3.30;90.60;;;;;;9990424;28;20089;-60
2021/01/17 11:11:18;;;;;;;7.90;4.00;;;3.30;90.70;;;;;;9987847;28;20044;-60
2021/01/17 11:16:09;;;;;;;7.30;3.95;;;3.20;90.50;;;;;;9988858;28;20539;-61
2021/01/17 11:21:01;;;;;;;7.00;3.47;;;3.30;90.60;;;;;;9990016;28;20326;-61
2021/01/17 11:26:06;;;;;;;7.00;3.30;;;3.40;90.50;;;;;;9990019;28;20482;-60
2021/01/17 11:31:10;;;;;;;6.25;3.42;;;3.40;90.40;;;;;;9989660;28;20457;-60
2021/01/17 11:36:01;;;;;;;7.47;4.10;;;3.30;90.50;;;;;;9989161;28;20042;-60
2021/01/17 11:41:06;;;;;;;5.13;3.22;;;3.40;90.60;;;;;;9989791;28;20128;-60
2021/01/17 11:46:04;;;;;;;7.65;3.38;;;3.40;90.40;;;;;;9987845;28;20432;-60
2021/01/17 11:50:55;;;;;;;3.85;2.90;;;3.30;90.50;;;;;;9993611;28;20061;-61
2021/01/17 11:55:49;;;;;;;6.25;3.40;;;3.40;90.50;;;;;;9995022;28;20078;-60
2021/01/17 12:00:59;;;;;;;5.88;3.08;;;3.40;90.70;;;;;;9996257;28;20045;-62
2021/01/17 12:06:02;;;;;;;8.35;3.72;;;3.50;90.40;;;;;;9995345;28;20037;-60
2021/01/17 12:10:54;;;;;;;6.75;3.75;;;3.50;90.30;;;;;;9996693;28;20033;-62
2021/01/17 12:15:45;;;;;;;7.85;4.00;;;3.60;90.30;;;;;;9995675;28;20043;-60
2021/01/17 12:20:35;;;;;;;5.38;3.03;;;3.70;90.30;;;;;;9994330;28;20388;-60
2021/01/17 12:25:26;;;;;;;7.30;3.88;;;3.80;90.20;;;;;;9994978;28;20649;-60
2021/01/17 12:30:17;;;;;;;5.20;3.08;;;3.60;90.20;;;;;;9995703;28;20048;-60
2021/01/17 12:35:08;;;;;;;5.25;3.30;;;3.60;90.60;;;;;;9994306;28;20544;-61
2021/01/17 12:39:59;;;;;;;9.25;3.58;;;3.70;90.40;;;;;;9988902;28;20041;-61
2021/01/17 12:44:49;;;;;;;6.03;4.05;;;3.70;90.30;;;;;;9993692;28;20149;-62
2021/01/17 12:49:40;;;;;;;5.93;3.55;;;3.60;90.30;;;;;;9995718;28;20124;-60
2021/01/17 12:54:31;;;;;;;8.63;3.38;;;3.60;90.30;;;;;;9994167;28;20109;-60
2021/01/17 12:59:21;;;;;;;6.97;3.15;;;3.60;90.40;;;;;;9993612;28;20030;-61
2021/01/17 13:04:12;;;;;;;3.85;2.67;;;3.60;90.30;;;;;;9993993;28;20564;-62
2021/01/17 13:09:02;;;;;;;8.13;3.25;;;3.40;90.40;;;;;;9994018;28;20530;-61
2021/01/17 13:13:53;;;;;;;6.78;3.58;;;3.50;90.50;;;;;;9994817;28;20080;-61
2021/01/17 13:18:44;;;;;;;7.78;3.95;;;3.70;90.40;;;;;;9994229;28;22046;-61
2021/01/17 13:23:35;;;;;;;6.55;3.78;;;3.50;90.30;;;;;;9993944;28;20037;-62
2021/01/17 13:28:26;;;;;;;5.93;3.75;;;3.30;90.40;;;;;;9992834;28;20428;-61
2021/01/17 13:33:17;;;;;;;8.00;4.20;;;3.10;90.60;;;;;;9992963;28;20142;-61
2021/01/17 13:38:09;;;;;;;6.38;3.22;;;3.10;90.60;;;;;;9994013;28;20032;-60
2021/01/17 13:43:00;;;;;;;7.22;3.92;;;3.10;90.40;;;;;;9992024;28;20240;-60
2021/01/17 13:47:51;;;;;;;6.75;3.72;;;3.20;90.40;;;;;;9993081;28;20026;-61
2021/01/17 13:52:44;;;;;;;8.10;3.53;;;3.20;90.30;;;;;;9994636;28;20038;-61
2021/01/17 13:57:38;;;;;;;6.38;3.88;;;3.00;90.30;;;;;;9995985;28;20026;-62
2021/01/17 14:02:29;;;;;;;7.97;4.63;;;3.00;90.50;;;;;;9990845;28;20300;-61
2021/01/17 14:07:19;;;;;;;7.22;3.80;;;3.10;90.30;;;;;;9989936;28;20158;-60
2021/01/17 14:12:11;;;;;;;8.43;3.78;;;3.10;90.40;;;;;;9992105;28;20025;-61
2021/01/17 14:17:02;;;;;;;7.25;4.15;;;3.10;90.30;;;;;;9989468;28;20045;-60
2021/01/17 14:21:52;;;;;;;6.28;4.07;;;3.20;90.30;;;;;;9991051;28;21366;-60
2021/01/17 14:26:43;;;;;;;8.70;4.65;;;3.20;90.40;;;;;;9992167;28;20029;-61
2021/01/17 14:31:39;;;;;;;6.28;3.97;;;3.30;90.20;;;;;;9986778;28;20654;-60
2021/01/17 14:36:38;;;;;;;8.47;4.90;;;3.20;90.30;;;;;;9992083;28;20053;-63
2021/01/17 14:41:28;;;;;;;9.25;4.72;;;3.20;90.40;;;;;;9990643;28;20300;-60
2021/01/17 14:46:19;;;;;;;8.50;4.25;;;3.30;90.20;;;;;;9991102;28;20301;-61
2021/01/17 14:51:10;;;;;;;7.38;4.72;;;3.30;90.30;;;;;;9990974;28;20033;-63
2021/01/17 14:56:00;;;;;;;11.25;4.53;;;3.40;90.20;;;;;;9991970;28;20017;-61
2021/01/17 15:00:51;;;;;;;8.50;4.72;;;3.40;90.20;;;;;;9990881;28;20042;-61
2021/01/17 15:05:41;;;;;;;8.98;3.88;;;3.30;90.20;;;;;;9990070;28;20389;-60
2021/01/17 15:10:32;;;;;;;9.48;4.70;;;3.30;90.30;;;;;;9989972;28;20037;-61
2021/01/17 15:15:23;;;;;;;6.65;3.95;;;3.30;90.40;;;;;;9986812;28;20685;-60
2021/01/17 15:20:14;;;;;;;6.93;3.55;;;3.40;90.50;;;;;;9990295;28;20064;-61
2021/01/17 15:25:05;;;;;;;6.80;4.10;;;3.40;90.20;;;;;;9991489;28;20091;-61
2021/01/17 15:29:55;;;;;;;9.65;4.35;;;3.40;90.30;;;;;;9997644;28;20170;-61
2021/01/17 15:34:46;;;;;;;9.32;4.13;;;3.40;90.20;;;;;;9997318;28;20037;-59
2021/01/17 15:39:36;;;;;;;8.68;5.15;;;3.40;90.30;;;;;;9997376;28;20056;-60
2021/01/17 15:44:27;;;;;;;11.55;5.50;;;3.40;90.30;;;;;;9993238;28;20080;-61
2021/01/17 15:49:18;;;;;;;8.18;4.32;;;3.40;90.30;;;;;;9997006;28;20037;-66
2021/01/17 15:54:08;;;;;;;7.68;3.90;;;3.40;90.40;;;;;;9998509;28;20041;-60
2021/01/17 15:58:59;;;;;;;8.48;4.15;;;3.40;90.40;;;;;;9997851;28;20033;-61
2021/01/17 16:03:50;;;;;;;9.10;5.57;;;3.30;90.40;;;;;;9998424;28;20542;-60
2021/01/17 16:08:41;;;;;;;12.23;5.18;;;3.30;90.40;;;;;;9996960;28;20029;-60
2021/01/17 16:13:32;;;;;;;13.18;6.47;;;3.30;90.50;;;;;;9995823;28;20056;-60
2021/01/17 16:18:22;;;;;;;11.20;6.65;;;3.20;90.50;;;;;;9996496;28;20486;-60
2021/01/17 16:23:13;;;;;;;8.38;4.97;;;3.20;90.60;;;;;;9996875;28;20064;-60
2021/01/17 16:28:04;;;;;;;8.18;4.60;;;3.10;90.60;;;;;;9996752;28;20034;-60
2021/01/17 16:33:01;;;;;;;10.90;5.65;;;3.00;90.70;;;;;;9994161;28;20659;-60
2021/01/17 16:37:52;;;;;;;10.35;4.97;;;3.10;90.70;;;;;;9993892;28;20531;-60
2021/01/17 16:42:42;;;;;;;8.00;5.03;;;3.20;90.70;;;;;;9993582;28;20091;-61
2021/01/17 16:47:35;;;;;;;11.98;6.30;;;3.20;90.60;;;;;;9997043;28;20491;-62
2021/01/17 16:52:25;;;;;;;10.65;6.22;;;3.30;90.60;;;;;;9997428;28;20049;-60
2021/01/17 16:57:16;;;;;;;18.98;6.63;;;3.30;90.50;;;;;;9993303;28;20060;-60
2021/01/17 17:02:07;;;;;;;10.75;6.43;;;3.40;90.50;;;;;;9993119;28;20111;-60
2021/01/17 17:07:01;;;;;;;12.20;7.40;;;3.40;90.50;;;;;;9992540;28;20400;-60
2021/01/17 17:11:52;;;;;;;9.65;5.07;;;3.30;90.60;;;;;;9994560;28;20040;-61
2021/01/17 17:16:42;;;;;;;14.75;7.95;;;3.30;90.90;;;;;;10843928;22;20124;-60
2021/01/17 17:21:35;;;;;;;14.77;6.63;;;3.20;90.70;;;;;;10011324;28;20041;-61
2021/01/17 17:26:31;;;;;;;10.80;5.78;;;3.20;90.70;;;;;;9997910;28;20502;-60
2021/01/17 17:31:22;;;;;;;12.18;6.13;;;3.20;90.80;;;;;;10013234;28;20087;-59
2021/01/17 17:36:14;;;;;;;14.18;6.28;;;3.20;90.70;;;;;;10014150;28;20092;-59
2021/01/17 17:41:06;;;;;;;13.35;5.65;;;3.20;90.70;;;;;;10014643;28;20046;-59
2021/01/17 17:45:57;;;;;;;11.23;6.50;;;3.20;90.90;;;;;;10015154;28;20029;-62
2021/01/17 17:50:48;;;;;;;10.45;5.18;;;3.20;90.70;;;;;;10013875;28;20044;-62
2021/01/17 17:55:38;;;;;;;16.42;8.05;;;3.30;90.80;;;;;;10012115;28;20501;-60
2021/01/17 18:00:29;;;;;;;22.42;9.55;;;3.40;90.70;;;;;;10010011;28;20041;-60
2021/01/17 18:05:20;;;;;;;12.93;7.30;;;3.40;90.60;;;;;;10010293;28;20033;-61
2021/01/17 18:10:11;;;;;;;21.13;8.80;;;3.30;90.50;;;;;;10011474;28;20061;-60
2021/01/17 18:15:02;;;;;;;23.92;9.63;;;3.30;90.60;;;;;;10008509;28;20287;-62
2021/01/17 18:19:53;;;;;;;16.85;6.78;;;3.40;90.60;;;;;;10010513;28;20171;-61
2021/01/17 18:24:43;;;;;;;11.05;5.57;;;3.40;90.60;;;;;;10008426;28;20495;-59
2021/01/17 18:29:34;;;;;;;16.13;7.95;;;3.40;90.60;;;;;;10010120;28;20029;-60
2021/01/17 18:34:25;;;;;;;13.95;6.38;;;3.40;90.60;;;;;;10008803;28;20411;-62
2021/01/17 18:39:15;;;;;;;10.80;5.53;;;3.40;90.60;;;;;;10008986;28;20064;-62
2021/01/17 18:44:06;;;;;;;12.65;6.07;;;3.40;90.70;;;;;;10007503;28;20187;-60
2021/01/17 18:48:57;;;;;;;8.20;5.65;;;3.40;90.70;;;;;;10006049;28;20428;-60
2021/01/17 18:53:47;;;;;;;11.30;6.05;;;3.50;90.60;;;;;;10009941;28;20033;-59
2021/01/17 18:58:38;;;;;;;14.00;7.35;;;3.50;90.60;;;;;;10010116;28;20187;-59
2021/01/17 19:03:28;;;;;;;11.50;5.88;;;3.50;90.60;;;;;;10018076;28;20122;-58
2021/01/17 19:08:19;;;;;;;12.48;6.28;;;3.40;90.70;;;;;;10013860;28;20033;-61
2021/01/17 19:13:10;;;;;;;16.98;7.18;;;3.40;90.70;;;;;;10019454;28;20037;-62
2021/01/17 19:18:00;;;;;;;10.77;5.80;;;3.30;90.70;;;;;;10017392;28;20057;-64
2021/01/17 19:22:51;;;;;;;11.23;5.32;;;3.20;91.10;;;;;;10018938;28;20544;-62
2021/01/17 19:27:42;;;;;;;8.75;5.75;;;3.30;90.80;;;;;;10017384;28;21429;-63
2021/01/17 19:32:33;;;;;;;9.18;5.28;;;3.30;90.80;;;;;;10018005;28;20049;-64
2021/01/17 19:37:23;;;;;;;11.88;5.10;;;3.30;90.70;;;;;;10018746;28;20037;-67
2021/01/17 19:42:14;;;;;;;11.32;5.78;;;3.30;90.70;;;;;;10018738;28;20104;-63
2021/01/17 19:47:06;;;;;;;9.35;5.60;;;3.30;90.70;;;;;;9999742;28;20393;-62
2021/01/17 19:51:57;;;;;;;9.40;5.75;;;3.30;90.80;;;;;;10015879;28;20108;-63
2021/01/17 19:56:47;;;;;;;13.07;6.05;;;3.30;90.90;;;;;;10016343;28;20033;-63
2021/01/17 20:01:40;;;;;;;8.70;5.13;;;3.30;90.70;;;;;;10015506;28;20056;-65
2021/01/17 20:06:34;;;;;;;9.40;5.85;;;3.30;90.70;;;;;;10014441;28;20750;-61
2021/01/17 20:11:26;;;;;;;12.60;7.55;;;3.30;90.70;;;;;;10017137;28;20462;-64
2021/01/17 20:16:17;;;;;;;7.75;4.07;;;3.30;90.70;;;;;;10014475;28;20140;-63
2021/01/17 20:21:20;;;;;;;11.10;5.13;;;3.30;90.70;;;;;;10013681;28;20072;-62
2021/01/17 20:26:32;;;;;;;10.30;5.43;;;3.40;90.70;;;;;;10015946;28;20029;-63
2021/01/17 20:31:23;;;;;;;7.78;4.18;;;3.30;90.70;;;;;;10016790;28;20542;-62
2021/01/17 20:36:26;;;;;;;13.85;5.90;;;3.40;90.70;;;;;;10015829;28;20243;-63
2021/01/17 20:41:17;;;;;;;9.30;5.07;;;3.40;90.60;;;;;;9998208;28;20433;-61
2021/01/17 20:46:08;;;;;;;8.77;4.78;;;3.40;90.60;;;;;;9998633;28;20029;-61
2021/01/17 20:50:58;;;;;;;10.15;5.25;;;3.40;90.70;;;;;;10009773;28;20045;-61
2021/01/17 20:55:49;;;;;;;7.68;5.25;;;3.40;90.70;;;;;;10012482;28;20030;-61
2021/01/17 21:00:39;;;;;;;12.23;5.22;;;3.40;90.60;;;;;;10001886;28;20041;-63
2021/01/17 21:05:30;;;;;;;10.85;6.32;;;3.40;90.70;;;;;;10007475;28;20577;-63
2021/01/17 21:10:21;;;;;;;9.73;4.93;;;3.40;90.60;;;;;;10011654;28;20560;-62
2021/01/17 21:15:12;;;;;;;10.00;5.32;;;3.40;90.60;;;;;;10011918;28;20130;-63
2021/01/17 21:20:06;;;;;;;11.95;5.88;;;3.40;90.60;;;;;;10010273;28;20591;-62
2021/01/17 21:24:57;;;;;;;13.02;5.88;;;3.40;90.50;;;;;;10011665;28;20645;-61
2021/01/17 21:29:48;;;;;;;12.98;6.18;;;3.50;90.60;;;;;;10012992;28;20025;-61
2021/01/17 21:34:38;;;;;;;9.65;5.50;;;3.50;90.60;;;;;;10011328;28;20064;-62
2021/01/17 21:39:29;;;;;;;12.80;7.03;;;3.50;90.50;;;;;;10013787;28;20577;-62
2021/01/17 21:44:19;;;;;;;10.75;5.45;;;3.50;90.60;;;;;;10014667;28;20510;-63
2021/01/17 21:49:10;;;;;;;11.15;6.90;;;3.50;90.50;;;;;;10015238;28;20078;-61
2021/01/17 21:54:00;;;;;;;12.88;5.75;;;3.50;90.50;;;;;;10013474;28;20057;-61
2021/01/17 21:58:51;;;;;;;9.20;5.25;;;3.50;90.70;;;;;;10014037;28;20045;-61
2021/01/17 22:03:45;;;;;;;9.45;5.70;;;3.50;90.60;;;;;;10014435;28;20099;-63
2021/01/17 22:08:36;;;;;;;10.88;5.30;;;3.50;90.60;;;;;;10011115;28;20060;-64
2021/01/17 22:13:27;;;;;;;8.15;5.22;;;3.40;90.60;;;;;;10013477;28;20041;-62
2021/01/17 22:18:18;;;;;;;11.15;4.93;;;3.50;90.70;;;;;;10014005;28;20477;-64
2021/01/17 22:23:08;;;;;;;11.05;5.30;;;3.50;90.60;;;;;;10013167;28;20207;-62
2021/01/17 22:27:59;;;;;;;10.45;5.22;;;3.40;90.60;;;;;;10012938;28;20212;-61
2021/01/17 22:32:50;;;;;;;8.90;5.10;;;3.40;90.70;;;;;;10014179;28;20060;-61
2021/01/17 22:37:46;;;;;;;7.85;4.25;;;3.50;90.70;;;;;;10012201;28;20096;-63
2021/01/17 22:42:38;;;;;;;9.05;4.32;;;3.50;90.60;;;;;;10013681;28;20076;-61
2021/01/17 22:47:29;;;;;;;10.57;5.00;;;3.50;90.60;;;;;;10013149;28;20144;-62
2021/01/17 22:52:20;;;;;;;10.68;4.47;;;3.50;90.60;;;;;;10011951;28;20538;-63
2021/01/17 22:57:10;;;;;;;8.32;4.68;;;3.40;90.70;;;;;;10013224;28;20533;-61
2021/01/17 23:02:04;;;;;;;10.48;4.05;;;3.40;90.70;;;;;;10010337;28;20041;-63
2021/01/17 23:06:57;;;;;;;8.73;4.22;;;3.40;90.70;;;;;;10012478;28;20148;-62
2021/01/17 23:11:47;;;;;;;9.38;4.47;;;3.40;90.60;;;;;;10011407;28;20087;-62
2021/01/17 23:16:38;;;;;;;5.78;3.97;;;3.50;90.60;;;;;;10011032;28;20054;-60
2021/01/17 23:21:29;;;;;;;9.55;4.10;;;3.40;90.70;;;;;;10009909;28;20049;-62
2021/01/17 23:26:19;;;;;;;9.90;4.60;;;3.50;90.60;;;;;;10010688;28;20384;-62
2021/01/17 23:31:10;;;;;;;6.60;3.80;;;3.50;90.60;;;;;;10012534;28;20067;-61
2021/01/17 23:36:00;;;;;;;8.38;4.43;;;3.50;90.60;;;;;;10012195;28;20991;-60
2021/01/17 23:40:51;;;;;;;10.85;5.05;;;3.50;90.60;;;;;;10011527;28;20065;-61
2021/01/17 23:45:42;;;;;;;10.15;4.85;;;3.40;90.70;;;;;;10013252;28;20033;-62
2021/01/17 23:50:33;;;;;;;10.80;4.90;;;3.60;90.60;;;;;;10018925;28;20041;-61
2021/01/17 23:55:24;;;;;;;11.52;5.10;;;3.60;90.60;;;;;;10018948;28;20026;-63
